Terminal Aerodrome Forecast
Issued by NWS

Home | Current Version | Previous Version | Text Only | Print | Product List | Glossary On
Versions: 1 2 3 4 5 6 7 8 9 10 11 12 13 14 15 16 17 18 19 20 21 22 23 24 25 26 27 28 29
435
FTUS41 KBUF 140903 AAA
TAFJHW
TAF AMD
KJHW 140903Z 1409/1506 35003KT P6SM OVC015
      TEMPO 1409/1412 4SM -SN
     FM141200 VRB04KT 6SM -SN BKN025
     FM141500 20004KT P6SM BKN035
     FM150000 14006KT P6SM BKN250
      AMD LTD TO CLD VIS AND WIND=

USA.gov is the U.S. government's official web portal to all federal, state and local government web resources and services.